Time,TemperatureF,DewpointF,PressureIn,WindDirection,WindDirectionDegrees,WindSpeedMPH,WindSpeedGustMPH,Humidity,HourlyPrecipIn,Conditions,Clouds,dailyrainin,SolarRadiationWatts/m^2,SoftwareType,DateUTC
2013-04-20 00:02:00,33.0,21.0,-100.00,SE,135,11.0,22.0,62,0.00,,,0.00,0.000000,,2013-04-20 06:02:00,
2013-04-20 00:12:00,33.0,21.0,-100.00,SE,135,11.0,22.0,62,0.00,,,0.00,0.000000,,2013-04-20 06:12:00,
2013-04-20 00:21:00,33.0,21.0,-100.00,SE,135,11.0,22.0,62,0.00,,,0.00,0.000000,,2013-04-20 06:21:00,
2013-04-20 00:52:00,32.0,18.0,-100.00,SE,146,12.0,24.0,56,0.00,,,0.00,0.000000,,2013-04-20 06:52:00,
2013-04-20 01:01:00,32.0,18.0,-100.00,SE,146,12.0,24.0,56,0.00,,,0.00,0.000000,,2013-04-20 07:01:00,
2013-04-20 01:11:00,32.0,18.0,-100.00,SE,146,12.0,24.0,56,0.00,,,0.00,0.000000,,2013-04-20 07:11:00,
2013-04-20 01:21:00,32.0,18.0,-100.00,SE,146,12.0,24.0,56,0.00,,,0.00,0.000000,,2013-04-20 07:21:00,
2013-04-20 01:52:00,33.0,21.0,-100.00,SE,143,9.0,24.0,60,0.00,,,0.00,0.000000,,2013-04-20 07:52:00,
2013-04-20 02:02:00,33.0,21.0,-100.00,SE,143,9.0,24.0,60,0.00,,,0.00,0.000000,,2013-04-20 08:02:00,
2013-04-20 02:11:00,33.0,21.0,-100.00,SE,143,9.0,24.0,60,0.00,,,0.00,0.000000,,2013-04-20 08:11:00,
2013-04-20 02:21:00,33.0,21.0,-100.00,SE,143,9.0,24.0,60,0.00,,,0.00,0.000000,,2013-04-20 08:21:00,
2013-04-20 02:52:00,32.0,21.0,-100.00,SSE,151,12.0,24.0,64,0.00,,,0.00,0.000000,,2013-04-20 08:52:00,
2013-04-20 03:01:00,32.0,21.0,-100.00,SSE,151,12.0,24.0,64,0.00,,,0.00,0.000000,,2013-04-20 09:01:00,
2013-04-20 03:12:00,32.0,21.0,-100.00,SSE,151,12.0,24.0,64,0.00,,,0.00,0.000000,,2013-04-20 09:12:00,
2013-04-20 03:21:00,32.0,21.0,-100.00,SSE,151,12.0,24.0,64,0.00,,,0.00,0.000000,,2013-04-20 09:21:00,
2013-04-20 03:53:00,31.0,22.0,-100.00,SSE,152,10.0,23.0,68,0.00,,,0.00,0.000000,,2013-04-20 09:53:00,
2013-04-20 04:03:00,31.0,22.0,-100.00,SSE,152,10.0,23.0,68,0.00,,,0.00,0.000000,,2013-04-20 10:03:00,
2013-04-20 04:13:00,31.0,22.0,-100.00,SSE,152,10.0,23.0,68,0.00,,,0.00,0.000000,,2013-04-20 10:13:00,
2013-04-20 04:23:00,31.0,22.0,-100.00,SSE,152,10.0,23.0,68,0.00,,,0.00,0.000000,,2013-04-20 10:23:00,
2013-04-20 04:53:00,30.0,24.0,-100.00,SSE,162,11.0,24.0,78,0.00,,,0.00,0.000000,,2013-04-20 10:53:00,
2013-04-20 05:02:00,30.0,24.0,-100.00,SSE,162,11.0,24.0,78,0.00,,,0.00,0.000000,,2013-04-20 11:02:00,
2013-04-20 05:12:00,30.0,24.0,-100.00,SSE,162,11.0,24.0,78,0.00,,,0.00,0.000000,,2013-04-20 11:12:00,
2013-04-20 05:23:00,30.0,24.0,-100.00,SSE,162,11.0,24.0,78,0.00,,,0.00,0.000000,,2013-04-20 11:23:00,
2013-04-20 05:53:00,30.0,26.0,-100.00,SSE,155,10.0,21.0,85,0.00,,,0.00,0.000000,,2013-04-20 11:53:00,
2013-04-20 06:02:00,30.0,26.0,-100.00,SSE,155,10.0,21.0,85,0.00,,,0.00,0.000000,,2013-04-20 12:02:00,
2013-04-20 06:11:00,30.0,26.0,-100.00,SSE,155,10.0,21.0,85,0.00,,,0.00,0.000000,,2013-04-20 12:11:00,
2013-04-20 06:22:00,30.0,26.0,-100.00,SSE,155,10.0,21.0,85,0.00,,,0.00,0.000000,,2013-04-20 12:22:00,
2013-04-20 06:52:00,29.0,25.0,-100.00,SSE,155,10.0,20.0,86,0.00,,,0.00,0.000000,,2013-04-20 12:52:00,
2013-04-20 07:02:00,29.0,25.0,-100.00,SSE,155,10.0,20.0,86,0.00,,,0.00,0.000000,,2013-04-20 13:02:00,
2013-04-20 07:11:00,29.0,25.0,-100.00,SSE,155,10.0,20.0,86,0.00,,,0.00,0.000000,,2013-04-20 13:11:00,
2013-04-20 07:21:00,29.0,25.0,-100.00,SSE,155,10.0,20.0,86,0.00,,,0.00,0.000000,,2013-04-20 13:21:00,
2013-04-20 07:42:00,30.0,26.0,-100.00,SSE,162,10.0,23.0,86,0.00,,,0.00,25.000000,,2013-04-20 13:42:00,
2013-04-20 07:52:00,30.0,26.0,-100.00,SSE,162,10.0,23.0,86,0.00,,,0.00,25.000000,,2013-04-20 13:52:00,
2013-04-20 08:02:00,30.0,26.0,-100.00,SSE,162,10.0,23.0,86,0.00,,,0.00,25.000000,,2013-04-20 14:02:00,
2013-04-20 08:11:00,30.0,26.0,-100.00,SSE,162,10.0,23.0,86,0.00,,,0.00,25.000000,,2013-04-20 14:11:00,
2013-04-20 08:21:00,30.0,26.0,-100.00,SSE,162,10.0,23.0,86,0.00,,,0.00,25.000000,,2013-04-20 14:21:00,
2013-04-20 08:42:00,31.0,27.0,-100.00,SSE,164,10.0,23.0,85,0.00,,,0.00,64.000000,,2013-04-20 14:42:00,
2013-04-20 08:52:00,31.0,27.0,-100.00,SSE,164,10.0,23.0,85,0.00,,,0.00,64.000000,,2013-04-20 14:52:00,
2013-04-20 09:01:00,31.0,27.0,-100.00,SSE,164,10.0,23.0,85,0.00,,,0.00,64.000000,,2013-04-20 15:01:00,
2013-04-20 09:11:00,31.0,27.0,-100.00,SSE,164,10.0,23.0,85,0.00,,,0.00,64.000000,,2013-04-20 15:11:00,
2013-04-20 09:21:00,31.0,27.0,-100.00,SSE,164,10.0,23.0,85,0.00,,,0.00,64.000000,,2013-04-20 15:21:00,
2013-04-20 09:53:00,33.0,28.0,-100.00,SSE,166,9.0,21.0,81,0.00,,,-99.99,141.000000,,2013-04-20 15:53:00,
2013-04-20 10:03:00,33.0,28.0,-100.00,SSE,166,9.0,21.0,81,0.00,,,-99.99,141.000000,,2013-04-20 16:03:00,
2013-04-20 10:12:00,33.0,28.0,-100.00,SSE,166,9.0,21.0,81,0.00,,,-99.99,141.000000,,2013-04-20 16:12:00,
2013-04-20 10:23:00,33.0,28.0,-100.00,SSE,166,9.0,21.0,81,0.00,,,-99.99,141.000000,,2013-04-20 16:23:00,
2013-04-20 10:53:00,36.0,29.0,-100.00,SSE,161,10.0,20.0,76,0.00,,,0.00,324.000000,,2013-04-20 16:53:00,
2013-04-20 11:02:00,36.0,29.0,-100.00,SSE,161,10.0,20.0,76,0.00,,,0.00,324.000000,,2013-04-20 17:02:00,
2013-04-20 11:12:00,36.0,29.0,-100.00,SSE,161,10.0,20.0,76,0.00,,,0.00,324.000000,,2013-04-20 17:12:00,
2013-04-20 11:23:00,36.0,29.0,-100.00,SSE,161,10.0,20.0,76,0.00,,,0.00,324.000000,,2013-04-20 17:23:00,
2013-04-20 11:52:00,39.0,31.0,-100.00,SSE,165,7.0,18.0,72,0.00,,,0.00,411.000000,,2013-04-20 17:52:00,
2013-04-20 12:02:00,39.0,31.0,-100.00,SSE,165,7.0,18.0,72,0.00,,,0.00,411.000000,,2013-04-20 18:02:00,
2013-04-20 12:12:00,39.0,31.0,-100.00,SSE,165,7.0,18.0,72,0.00,,,0.00,411.000000,,2013-04-20 18:12:00,
2013-04-20 12:22:00,39.0,31.0,-100.00,SSE,165,7.0,18.0,72,0.00,,,0.00,411.000000,,2013-04-20 18:22:00,
2013-04-20 12:52:00,43.0,34.0,-100.00,SSE,167,8.0,17.0,69,0.00,,,0.00,503.000000,,2013-04-20 18:52:00,
2013-04-20 13:02:00,43.0,34.0,-100.00,SSE,167,8.0,17.0,69,0.00,,,0.00,503.000000,,2013-04-20 19:02:00,
2013-04-20 13:11:00,43.0,34.0,-100.00,SSE,167,8.0,17.0,69,0.00,,,0.00,503.000000,,2013-04-20 19:11:00,
2013-04-20 13:21:00,43.0,34.0,-100.00,SSE,167,8.0,17.0,69,0.00,,,0.00,503.000000,,2013-04-20 19:21:00,
2013-04-20 13:52:00,50.0,38.0,-100.00,WNW,298,6.0,15.0,62,0.00,,,0.00,647.000000,,2013-04-20 19:52:00,
2013-04-20 14:02:00,50.0,38.0,-100.00,WNW,298,6.0,15.0,62,0.00,,,0.00,647.000000,,2013-04-20 20:02:00,
2013-04-20 14:12:00,50.0,38.0,-100.00,WNW,298,6.0,15.0,62,0.00,,,0.00,647.000000,,2013-04-20 20:12:00,
2013-04-20 14:21:00,50.0,38.0,-100.00,WNW,298,6.0,15.0,62,0.00,,,0.00,647.000000,,2013-04-20 20:21:00,
2013-04-20 14:52:00,54.0,40.0,-100.00,South,176,6.0,15.0,60,0.00,,,0.00,835.000000,,2013-04-20 20:52:00,
2013-04-20 15:01:00,54.0,40.0,-100.00,South,176,6.0,15.0,60,0.00,,,0.00,835.000000,,2013-04-20 21:01:00,
2013-04-20 15:12:00,54.0,40.0,-100.00,South,176,6.0,15.0,60,0.00,,,0.00,835.000000,,2013-04-20 21:12:00,
2013-04-20 15:22:00,54.0,40.0,-100.00,South,176,6.0,15.0,60,0.00,,,0.00,835.000000,,2013-04-20 21:22:00,
2013-04-20 15:43:00,57.0,41.0,-100.00,SSE,154,6.0,14.0,56,0.00,,,0.00,918.000000,,2013-04-20 21:43:00,
2013-04-20 15:53:00,57.0,41.0,-100.00,SSE,154,6.0,14.0,56,0.00,,,0.00,918.000000,,2013-04-20 21:53:00,
2013-04-20 16:02:00,57.0,41.0,-100.00,SSE,154,6.0,14.0,56,0.00,,,0.00,918.000000,,2013-04-20 22:02:00,
2013-04-20 16:12:00,57.0,41.0,-100.00,SSE,154,6.0,14.0,56,0.00,,,0.00,918.000000,,2013-04-20 22:12:00,
2013-04-20 16:22:00,57.0,41.0,-100.00,SSE,154,6.0,14.0,56,0.00,,,0.00,918.000000,,2013-04-20 22:22:00,
2013-04-20 16:42:00,57.0,41.0,-100.00,SE,139,7.0,14.0,55,0.00,,,0.00,525.000000,,2013-04-20 22:42:00,
2013-04-20 16:53:00,57.0,41.0,-100.00,SE,139,7.0,14.0,55,0.00,,,0.00,525.000000,,2013-04-20 22:53:00,
2013-04-20 17:02:00,57.0,41.0,-100.00,SE,139,7.0,14.0,55,0.00,,,0.00,525.000000,,2013-04-20 23:02:00,
2013-04-20 17:11:00,57.0,41.0,-100.00,SE,139,7.0,14.0,55,0.00,,,0.00,525.000000,,2013-04-20 23:11:00,
2013-04-20 17:22:00,57.0,41.0,-100.00,SE,139,7.0,14.0,55,0.00,,,0.00,525.000000,,2013-04-20 23:22:00,
2013-04-20 17:53:00,53.0,41.0,-100.00,SE,144,4.0,12.0,64,0.00,,,0.00,133.000000,,2013-04-20 23:53:00,
2013-04-20 18:01:00,53.0,41.0,-100.00,SE,144,4.0,12.0,64,0.00,,,0.00,133.000000,,2013-04-21 00:01:00,
2013-04-20 18:11:00,53.0,41.0,-100.00,SE,144,4.0,12.0,64,0.00,,,0.00,133.000000,,2013-04-21 00:11:00,
2013-04-20 18:22:00,53.0,41.0,-100.00,SE,144,4.0,12.0,64,0.00,,,0.00,133.000000,,2013-04-21 00:22:00,
2013-04-20 18:52:00,43.0,42.0,-100.00,ENE,57,1.0,17.0,97,0.19,,,0.19,35.000000,,2013-04-21 00:52:00,
2013-04-20 19:01:00,43.0,42.0,-100.00,ENE,57,1.0,17.0,97,0.19,,,0.19,35.000000,,2013-04-21 01:01:00,
2013-04-20 19:12:00,43.0,42.0,-100.00,ENE,57,1.0,17.0,97,0.19,,,0.19,35.000000,,2013-04-21 01:12:00,
2013-04-20 19:21:00,43.0,42.0,-100.00,ENE,57,1.0,17.0,97,0.19,,,0.19,35.000000,,2013-04-21 01:21:00,
2013-04-20 19:52:00,44.0,43.0,-100.00,SSE,153,4.0,12.0,97,0.00,,,0.19,73.000000,,2013-04-21 01:52:00,
2013-04-20 20:02:00,44.0,43.0,-100.00,SSE,153,4.0,12.0,97,0.00,,,0.19,73.000000,,2013-04-21 02:02:00,
2013-04-20 20:11:00,44.0,43.0,-100.00,SSE,153,4.0,12.0,97,0.00,,,0.19,73.000000,,2013-04-21 02:11:00,
2013-04-20 20:21:00,44.0,43.0,-100.00,SSE,153,4.0,12.0,97,0.00,,,0.19,73.000000,,2013-04-21 02:21:00,
2013-04-20 20:52:00,43.0,42.0,-100.00,SE,134,4.0,7.0,98,0.00,,,0.19,7.000000,,2013-04-21 02:52:00,
2013-04-20 21:01:00,43.0,42.0,-100.00,SE,134,4.0,7.0,98,0.00,,,0.19,7.000000,,2013-04-21 03:01:00,
2013-04-20 21:11:00,43.0,42.0,-100.00,SE,134,4.0,7.0,98,0.00,,,0.19,7.000000,,2013-04-21 03:11:00,
2013-04-20 21:21:00,43.0,42.0,-100.00,SE,134,4.0,7.0,98,0.00,,,0.19,7.000000,,2013-04-21 03:21:00,
2013-04-20 21:42:00,41.0,40.0,-100.00,SSE,157,2.0,7.0,98,0.03,,,0.22,0.000000,,2013-04-21 03:42:00,
2013-04-20 21:52:00,41.0,40.0,-100.00,SSE,157,2.0,7.0,98,0.03,,,0.22,0.000000,,2013-04-21 03:52:00,
2013-04-20 22:02:00,41.0,40.0,-100.00,SSE,157,2.0,7.0,98,0.03,,,0.22,0.000000,,2013-04-21 04:02:00,
2013-04-20 22:12:00,41.0,40.0,-100.00,SSE,157,2.0,7.0,98,0.03,,,0.22,0.000000,,2013-04-21 04:12:00,
2013-04-20 22:22:00,41.0,40.0,-100.00,SSE,157,2.0,7.0,98,0.03,,,0.22,0.000000,,2013-04-21 04:22:00,
2013-04-20 22:43:00,41.0,40.0,-100.00,SSE,164,2.0,10.0,98,0.03,,,0.25,0.000000,,2013-04-21 04:43:00,
2013-04-20 22:53:00,41.0,40.0,-100.00,SSE,164,2.0,10.0,98,0.03,,,0.25,0.000000,,2013-04-21 04:53:00,
2013-04-20 23:02:00,41.0,40.0,-100.00,SSE,164,2.0,10.0,98,0.03,,,0.25,0.000000,,2013-04-21 05:02:00,
2013-04-20 23:12:00,41.0,40.0,-100.00,SSE,164,2.0,10.0,98,0.03,,,0.25,0.000000,,2013-04-21 05:12:00,
2013-04-20 23:22:00,41.0,40.0,-100.00,SSE,164,2.0,10.0,98,0.03,,,0.25,0.000000,,2013-04-21 05:22:00,
2013-04-20 23:43:00,41.0,40.0,-100.00,SW,214,3.0,9.0,98,0.00,,,0.25,0.000000,,2013-04-21 05:43:00,
2013-04-20 23:52:00,41.0,40.0,-100.00,SW,214,3.0,9.0,98,0.00,,,0.25,0.000000,,2013-04-21 05:52:00,